sensor_id;sensor_type;location;lat;lon;timestamp;pressure;altitude;pressure_sealevel;temperature;humidity
71638;BME280;59485;43.542;-5.676;2023-02-19T00:02:14;102917.13;;;12.06;100.00
71638;BME280;59485;43.542;-5.676;2023-02-19T00:04:41;102919.00;;;12.06;100.00
71638;BME280;59485;43.542;-5.676;2023-02-19T00:07:06;102919.00;;;12.06;100.00
71638;BME280;59485;43.542;-5.676;2023-02-19T00:09:31;102924.38;;;12.07;100.00
71638;BME280;59485;43.542;-5.676;2023-02-19T00:14:22;102919.72;;;12.08;100.00
71638;BME280;59485;43.542;-5.676;2023-02-19T00:16:47;102914.22;;;12.08;100.00
71638;BME280;59485;43.542;-5.676;2023-02-19T00:24:55;102912.63;;;12.05;100.00
71638;BME280;59485;43.542;-5.676;2023-02-19T00:27:23;102902.66;;;12.04;100.00
71638;BME280;59485;43.542;-5.676;2023-02-19T00:29:58;102912.91;;;12.02;100.00
71638;BME280;59485;43.542;-5.676;2023-02-19T00:32:23;102903.06;;;11.99;100.00
71638;BME280;59485;43.542;-5.676;2023-02-19T00:34:53;102904.69;;;12.02;100.00
71638;BME280;59485;43.542;-5.676;2023-02-19T00:40:03;102904.69;;;12.02;100.00
71638;BME280;59485;43.542;-5.676;2023-02-19T00:42:47;102911.19;;;12.01;100.00
71638;BME280;59485;43.542;-5.676;2023-02-19T00:45:12;102908.44;;;12.01;100.00
71638;BME280;59485;43.542;-5.676;2023-02-19T00:47:37;102902.06;;;12.00;100.00
71638;BME280;59485;43.542;-5.676;2023-02-19T00:54:58;102902.38;;;11.97;100.00
71638;BME280;59485;43.542;-5.676;2023-02-19T00:59:59;102894.84;;;11.99;100.00
71638;BME280;59485;43.542;-5.676;2023-02-19T01:02:24;102887.63;;;11.98;100.00
71638;BME280;59485;43.542;-5.676;2023-02-19T01:05:03;102893.28;;;11.97;100.00
71638;BME280;59485;43.542;-5.676;2023-02-19T01:07:47;102900.50;;;11.98;100.00
71638;BME280;59485;43.542;-5.676;2023-02-19T01:10:13;102902.53;;;11.96;100.00
71638;BME280;59485;43.542;-5.676;2023-02-19T01:12:38;102903.41;;;11.96;100.00
71638;BME280;59485;43.542;-5.676;2023-02-19T01:15:06;102902.53;;;11.96;100.00
71638;BME280;59485;43.542;-5.676;2023-02-19T01:17:31;102898.91;;;11.95;100.00
71638;BME280;59485;43.542;-5.676;2023-02-19T01:22:34;102900.78;;;11.95;100.00
71638;BME280;59485;43.542;-5.676;2023-02-19T01:25:02;102901.66;;;11.95;100.00
71638;BME280;59485;43.542;-5.676;2023-02-19T01:27:27;102899.78;;;11.96;100.00
71638;BME280;59485;43.542;-5.676;2023-02-19T01:29:52;102906.16;;;11.96;100.00
71638;BME280;59485;43.542;-5.676;2023-02-19T01:32:18;102907.16;;;11.95;100.00
71638;BME280;59485;43.542;-5.676;2023-02-19T01:34:43;102905.28;;;11.96;100.00
71638;BME280;59485;43.542;-5.676;2023-02-19T01:37:08;102899.91;;;11.94;100.00
71638;BME280;59485;43.542;-5.676;2023-02-19T01:39:36;102903.69;;;11.93;100.00
71638;BME280;59485;43.542;-5.676;2023-02-19T01:42:02;102904.53;;;11.94;100.00
71638;BME280;59485;43.542;-5.676;2023-02-19T01:46:53;102910.91;;;11.94;100.00
71638;BME280;59485;43.542;-5.676;2023-02-19T01:49:31;102909.03;;;11.95;100.00
71638;BME280;59485;43.542;-5.676;2023-02-19T01:54:31;102912.06;;;11.92;100.00
71638;BME280;59485;43.542;-5.676;2023-02-19T01:57:03;102908.31;;;11.93;100.00
71638;BME280;59485;43.542;-5.676;2023-02-19T01:59:31;102912.06;;;11.92;100.00
71638;BME280;59485;43.542;-5.676;2023-02-19T02:01:57;102903.81;;;11.92;100.00
71638;BME280;59485;43.542;-5.676;2023-02-19T02:04:22;102909.31;;;11.92;100.00
71638;BME280;59485;43.542;-5.676;2023-02-19T02:06:49;102907.56;;;11.91;100.00
71638;BME280;59485;43.542;-5.676;2023-02-19T02:09:17;102912.94;;;11.92;100.00
71638;BME280;59485;43.542;-5.676;2023-02-19T02:12:01;102901.22;;;11.90;100.00
71638;BME280;59485;43.542;-5.676;2023-02-19T02:14:27;102903.13;;;11.90;100.00
71638;BME280;59485;43.542;-5.676;2023-02-19T02:16:57;102904.28;;;11.87;100.00
71638;BME280;59485;43.542;-5.676;2023-02-19T02:27:16;102874.63;;;11.81;100.00
71638;BME280;59485;43.542;-5.676;2023-02-19T02:32:18;102873.06;;;11.79;100.00
71638;BME280;59485;43.542;-5.676;2023-02-19T02:34:50;102885.59;;;11.81;100.00
71638;BME280;59485;43.542;-5.676;2023-02-19T02:37:18;102879.09;;;11.82;100.00
71638;BME280;59485;43.542;-5.676;2023-02-19T02:39:44;102881.16;;;11.80;100.00
71638;BME280;59485;43.542;-5.676;2023-02-19T02:42:10;102881.16;;;11.80;100.00
71638;BME280;59485;43.542;-5.676;2023-02-19T02:44:54;102882.03;;;11.81;100.00
71638;BME280;59485;43.542;-5.676;2023-02-19T02:47:40;102879.28;;;11.81;100.00
71638;BME280;59485;43.542;-5.676;2023-02-19T02:50:26;102889.22;;;11.82;100.00
71638;BME280;59485;43.542;-5.676;2023-02-19T02:52:55;102888.34;;;11.81;100.00
71638;BME280;59485;43.542;-5.676;2023-02-19T02:56:00;102887.53;;;11.81;100.00
71638;BME280;59485;43.542;-5.676;2023-02-19T02:58:26;102881.16;;;11.80;100.00
71638;BME280;59485;43.542;-5.676;2023-02-19T03:00:56;102880.97;;;11.82;100.00
71638;BME280;59485;43.542;-5.676;2023-02-19T03:03:43;102875.34;;;11.83;100.00
71638;BME280;59485;43.542;-5.676;2023-02-19T03:06:10;102883.59;;;11.83;100.00
71638;BME280;59485;43.542;-5.676;2023-02-19T03:08:40;102883.44;;;11.85;100.00
71638;BME280;59485;43.542;-5.676;2023-02-19T03:11:08;102884.31;;;11.85;100.00
71638;BME280;59485;43.542;-5.676;2023-02-19T03:13:55;102883.44;;;11.85;100.00
71638;BME280;59485;43.542;-5.676;2023-02-19T03:16:40;102881.56;;;11.85;100.00
71638;BME280;59485;43.542;-5.676;2023-02-19T03:19:25;102879.69;;;11.86;100.00
71638;BME280;59485;43.542;-5.676;2023-02-19T03:24:17;102874.91;;;11.88;100.00
71638;BME280;59485;43.542;-5.676;2023-02-19T03:27:04;102877.66;;;11.88;100.00
71638;BME280;59485;43.542;-5.676;2023-02-19T03:29:30;102882.84;;;11.91;100.00
71638;BME280;59485;43.542;-5.676;2023-02-19T03:32:01;102877.34;;;11.91;100.00
71638;BME280;59485;43.542;-5.676;2023-02-19T03:34:30;102883.56;;;11.93;100.00
71638;BME280;59485;43.542;-5.676;2023-02-19T03:37:12;102882.69;;;11.92;100.00
71638;BME280;59485;43.542;-5.676;2023-02-19T03:39:38;102878.06;;;11.93;100.00
71638;BME280;59485;43.542;-5.676;2023-02-19T03:47:37;102884.28;;;11.95;100.00
71638;BME280;59485;43.542;-5.676;2023-02-19T03:52:41;102881.53;;;11.95;100.00
71638;BME280;59485;43.542;-5.676;2023-02-19T03:55:23;102869.81;;;11.93;100.00
71638;BME280;59485;43.542;-5.676;2023-02-19T04:00:17;102869.69;;;11.94;100.00
71638;BME280;59485;43.542;-5.676;2023-02-19T04:05:25;102872.44;;;11.94;100.00
71638;BME280;59485;43.542;-5.676;2023-02-19T04:07:52;102873.31;;;11.95;100.00
71638;BME280;59485;43.542;-5.676;2023-02-19T04:10:19;102865.19;;;11.93;100.00
71638;BME280;59485;43.542;-5.676;2023-02-19T04:12:47;102869.81;;;11.93;100.00
71638;BME280;59485;43.542;-5.676;2023-02-19T04:15:15;102869.09;;;11.91;100.00
71638;BME280;59485;43.542;-5.676;2023-02-19T04:20:21;102869.97;;;11.91;100.00
71638;BME280;59485;43.542;-5.676;2023-02-19T04:22:48;102875.63;;;11.90;100.00
71638;BME280;59485;43.542;-5.676;2023-02-19T04:25:14;102874.59;;;11.91;100.00
71638;BME280;59485;43.542;-5.676;2023-02-19T04:30:07;102872.16;;;11.88;100.00
71638;BME280;59485;43.542;-5.676;2023-02-19T04:35:11;102882.16;;;11.89;100.00
71638;BME280;59485;43.542;-5.676;2023-02-19T04:37:54;102883.03;;;11.89;100.00
71638;BME280;59485;43.542;-5.676;2023-02-19T04:40:19;102881.41;;;11.87;100.00
71638;BME280;59485;43.542;-5.676;2023-02-19T04:43:03;102884.59;;;11.82;100.00
71638;BME280;59485;43.542;-5.676;2023-02-19T04:45:28;102889.22;;;11.82;100.00
71638;BME280;59485;43.542;-5.676;2023-02-19T04:47:56;102887.81;;;11.78;100.00
71638;BME280;59485;43.542;-5.676;2023-02-19T04:50:21;102897.78;;;11.79;100.00
71638;BME280;59485;43.542;-5.676;2023-02-19T04:52:56;102894.16;;;11.78;100.00
71638;BME280;59485;43.542;-5.676;2023-02-19T04:55:21;102894.31;;;11.77;100.00
71638;BME280;59485;43.542;-5.676;2023-02-19T04:57:47;102898.66;;;11.79;100.00
71638;BME280;59485;43.542;-5.676;2023-02-19T05:00:12;102904.00;;;11.81;100.00
71638;BME280;59485;43.542;-5.676;2023-02-19T05:02:37;102891.09;;;11.81;100.00
71638;BME280;59485;43.542;-5.676;2023-02-19T05:05:03;102896.47;;;11.83;100.00
71638;BME280;59485;43.542;-5.676;2023-02-19T05:07:28;102899.66;;;11.78;100.00
71638;BME280;59485;43.542;-5.676;2023-02-19T05:09:54;102900.81;;;11.76;100.00
71638;BME280;59485;43.542;-5.676;2023-02-19T05:12:19;102900.81;;;11.76;100.00
71638;BME280;59485;43.542;-5.676;2023-02-19T05:14:48;102896.19;;;11.76;100.00
71638;BME280;59485;43.542;-5.676;2023-02-19T05:17:15;102898.78;;;11.78;100.00
71638;BME280;59485;43.542;-5.676;2023-02-19T05:19:41;102902.41;;;11.78;100.00
71638;BME280;59485;43.542;-5.676;2023-02-19T05:22:08;102899.06;;;11.75;100.00
71638;BME280;59485;43.542;-5.676;2023-02-19T05:24:37;102899.66;;;11.78;100.00
71638;BME280;59485;43.542;-5.676;2023-02-19T05:27:06;102898.78;;;11.78;100.00
71638;BME280;59485;43.542;-5.676;2023-02-19T05:29:32;102899.66;;;11.78;100.00
71638;BME280;59485;43.542;-5.676;2023-02-19T05:31:57;102901.69;;;11.76;100.00
71638;BME280;59485;43.542;-5.676;2023-02-19T05:34:23;102898.78;;;11.78;100.00
71638;BME280;59485;43.542;-5.676;2023-02-19T05:36:48;102898.78;;;11.78;100.00
71638;BME280;59485;43.542;-5.676;2023-02-19T05:39:13;102903.13;;;11.80;100.00
71638;BME280;59485;43.542;-5.676;2023-02-19T05:41:39;102897.47;;;11.82;100.00
71638;BME280;59485;43.542;-5.676;2023-02-19T05:44:05;102896.91;;;11.78;100.00
71638;BME280;59485;43.542;-5.676;2023-02-19T05:46:31;102907.75;;;11.80;100.00
71638;BME280;59485;43.542;-5.676;2023-02-19T05:48:59;102908.91;;;11.77;100.00
71638;BME280;59485;43.542;-5.676;2023-02-19T05:51:28;102913.25;;;11.80;100.00
71638;BME280;59485;43.542;-5.676;2023-02-19T05:53:56;102913.25;;;11.80;100.00
71638;BME280;59485;43.542;-5.676;2023-02-19T05:58:50;102918.16;;;11.76;100.00
71638;BME280;59485;43.542;-5.676;2023-02-19T06:01:16;102922.66;;;11.77;100.00
71638;BME280;59485;43.542;-5.676;2023-02-19T06:03:42;102918.03;;;11.78;100.00
71638;BME280;59485;43.542;-5.676;2023-02-19T06:06:09;102924.53;;;11.77;100.00
71638;BME280;59485;43.542;-5.676;2023-02-19T06:08:37;102920.28;;;11.73;100.00
71638;BME280;59485;43.542;-5.676;2023-02-19T06:11:02;102915.25;;;11.68;100.00
71638;BME280;59485;43.542;-5.676;2023-02-19T06:13:28;102915.09;;;11.70;100.00
71638;BME280;59485;43.542;-5.676;2023-02-19T06:15:53;102914.97;;;11.71;100.00
71638;BME280;59485;43.542;-5.676;2023-02-19T06:18:19;102907.41;;;11.73;100.00
71638;BME280;59485;43.542;-5.676;2023-02-19T06:20:44;102910.16;;;11.73;100.00
71638;BME280;59485;43.542;-5.676;2023-02-19T06:23:09;102913.78;;;11.74;100.00
71638;BME280;59485;43.542;-5.676;2023-02-19T06:25:35;102911.50;;;11.69;100.00
71638;BME280;59485;43.542;-5.676;2023-02-19T06:28:00;102918.41;;;11.63;100.00
71638;BME280;59485;43.542;-5.676;2023-02-19T06:30:25;102917.41;;;11.64;100.00
71638;BME280;59485;43.542;-5.676;2023-02-19T06:32:51;102915.53;;;11.65;100.00
71638;BME280;59485;43.542;-5.676;2023-02-19T06:35:17;102923.34;;;11.70;100.00
71638;BME280;59485;43.542;-5.676;2023-02-19T06:37:45;102918.13;;;11.66;100.00
71638;BME280;59485;43.542;-5.676;2023-02-19T06:40:10;102919.88;;;11.68;100.00
71638;BME280;59485;43.542;-5.676;2023-02-19T06:42:35;102920.75;;;11.68;100.00
71638;BME280;59485;43.542;-5.676;2023-02-19T06:45:01;102915.97;;;11.70;100.00
71638;BME280;59485;43.542;-5.676;2023-02-19T06:47:29;102919.28;;;11.74;100.00
71638;BME280;59485;43.542;-5.676;2023-02-19T06:49:54;102922.03;;;11.74;100.00
71638;BME280;59485;43.542;-5.676;2023-02-19T06:52:19;102928.69;;;11.71;100.00
71638;BME280;59485;43.542;-5.676;2023-02-19T06:54:45;102934.19;;;11.71;100.00
71638;BME280;59485;43.542;-5.676;2023-02-19T06:57:10;102926.97;;;11.70;100.00
71638;BME280;59485;43.542;-5.676;2023-02-19T06:59:45;102931.59;;;11.70;100.00
71638;BME280;59485;43.542;-5.676;2023-02-19T07:02:11;102940.09;;;11.66;100.00
71638;BME280;59485;43.542;-5.676;2023-02-19T07:04:36;102931.31;;;11.63;100.00
71638;BME280;59485;43.542;-5.676;2023-02-19T07:07:02;102931.00;;;11.66;100.00
71638;BME280;59485;43.542;-5.676;2023-02-19T07:09:27;102932.00;;;11.65;100.00
71638;BME280;59485;43.542;-5.676;2023-02-19T07:11:53;102935.22;;;11.70;100.00
71638;BME280;59485;43.542;-5.676;2023-02-19T07:14:18;102936.06;;;11.71;100.00
71638;BME280;59485;43.542;-5.676;2023-02-19T07:16:45;102943.31;;;11.72;100.00
71638;BME280;59485;43.542;-5.676;2023-02-19T07:19:13;102932.16;;;11.73;100.00
71638;BME280;59485;43.542;-5.676;2023-02-19T07:21:39;102937.53;;;11.75;100.00
71638;BME280;59485;43.542;-5.676;2023-02-19T07:24:06;102939.13;;;11.77;100.00
71638;BME280;59485;43.542;-5.676;2023-02-19T07:26:32;102943.63;;;11.78;100.00
71638;BME280;59485;43.542;-5.676;2023-02-19T07:28:57;102933.19;;;11.82;100.00
71638;BME280;59485;43.542;-5.676;2023-02-19T07:31:23;102943.16;;;11.83;100.00
71638;BME280;59485;43.542;-5.676;2023-02-19T07:33:48;102947.66;;;11.84;100.00
71638;BME280;59485;43.542;-5.676;2023-02-19T07:36:15;102939.28;;;11.85;100.00
71638;BME280;59485;43.542;-5.676;2023-02-19T07:38:41;102942.88;;;11.86;100.00
71638;BME280;59485;43.542;-5.676;2023-02-19T07:41:07;102947.38;;;11.87;100.00
71638;BME280;59485;43.542;-5.676;2023-02-19T07:43:34;102953.59;;;11.89;100.00
71638;BME280;59485;43.542;-5.676;2023-02-19T07:46:03;102947.94;;;11.90;100.00
71638;BME280;59485;43.542;-5.676;2023-02-19T07:48:29;102956.03;;;11.92;100.00
71638;BME280;59485;43.542;-5.676;2023-02-19T07:50:55;102950.53;;;11.92;100.00
71638;BME280;59485;43.542;-5.676;2023-02-19T07:53:21;102952.41;;;11.91;100.00
71638;BME280;59485;43.542;-5.676;2023-02-19T07:55:46;102950.25;;;11.95;100.00
71638;BME280;59485;43.542;-5.676;2023-02-19T07:58:15;102953.75;;;11.97;100.00
71638;BME280;59485;43.542;-5.676;2023-02-19T08:00:40;102957.34;;;11.97;100.00
71638;BME280;59485;43.542;-5.676;2023-02-19T08:03:05;102955.31;;;11.99;100.00
71638;BME280;59485;43.542;-5.676;2023-02-19T08:05:32;102956.16;;;12.00;100.00
71638;BME280;59485;43.542;-5.676;2023-02-19T08:07:58;102950.69;;;12.00;100.00
71638;BME280;59485;43.542;-5.676;2023-02-19T08:10:24;102948.50;;;12.03;100.00
71638;BME280;59485;43.542;-5.676;2023-02-19T08:13:09;102959.38;;;12.05;100.00
71638;BME280;59485;43.542;-5.676;2023-02-19T08:15:53;102948.38;;;12.05;100.00
71638;BME280;59485;43.542;-5.676;2023-02-19T08:18:20;102948.22;;;12.07;100.00
71638;BME280;59485;43.542;-5.676;2023-02-19T08:20:46;102948.94;;;12.09;100.00
71638;BME280;59485;43.542;-5.676;2023-02-19T08:23:15;102960.66;;;12.11;100.00
71638;BME280;59485;43.542;-5.676;2023-02-19T08:25:40;102959.78;;;12.10;100.00
71638;BME280;59485;43.542;-5.676;2023-02-19T08:28:06;102967.75;;;12.13;100.00
71638;BME280;59485;43.542;-5.676;2023-02-19T08:30:32;102964.00;;;12.14;100.00
71638;BME280;59485;43.542;-5.676;2023-02-19T08:32:58;102964.00;;;12.14;100.00
71638;BME280;59485;43.542;-5.676;2023-02-19T08:35:24;102965.41;;;12.18;100.00
71638;BME280;59485;43.542;-5.676;2023-02-19T08:37:49;102963.38;;;12.20;100.00
71638;BME280;59485;43.542;-5.676;2023-02-19T08:40:15;102966.00;;;12.22;100.00
71638;BME280;59485;43.542;-5.676;2023-02-19T08:42:40;102962.09;;;12.24;100.00
71638;BME280;59485;43.542;-5.676;2023-02-19T08:45:06;102972.22;;;12.24;100.00
71638;BME280;59485;43.542;-5.676;2023-02-19T08:47:33;102963.84;;;12.25;100.00
71638;BME280;59485;43.542;-5.676;2023-02-19T08:49:59;102970.91;;;12.28;100.00
71638;BME280;59485;43.542;-5.676;2023-02-19T08:54:59;102980.00;;;12.28;100.00
71638;BME280;59485;43.542;-5.676;2023-02-19T08:57:25;102980.00;;;12.28;100.00
71638;BME280;59485;43.542;-5.676;2023-02-19T08:59:51;102977.13;;;12.30;100.00
71638;BME280;59485;43.542;-5.676;2023-02-19T09:02:16;102975.25;;;12.30;100.00
71638;BME280;59485;43.542;-5.676;2023-02-19T09:04:41;102981.47;;;12.32;100.00
71638;BME280;59485;43.542;-5.676;2023-02-19T09:07:07;102984.22;;;12.32;100.00
71638;BME280;59485;43.542;-5.676;2023-02-19T09:09:38;102986.81;;;12.34;100.00
71638;BME280;59485;43.542;-5.676;2023-02-19T09:12:07;102981.16;;;12.35;100.00
71638;BME280;59485;43.542;-5.676;2023-02-19T09:14:32;102979.84;;;12.39;100.00
71638;BME280;59485;43.542;-5.676;2023-02-19T09:16:58;102987.09;;;12.40;100.00
71638;BME280;59485;43.542;-5.676;2023-02-19T09:19:25;102981.44;;;12.42;100.00
71638;BME280;59485;43.542;-5.676;2023-02-19T09:21:50;102985.47;;;12.48;100.00
71638;BME280;59485;43.542;-5.676;2023-02-19T09:24:15;102991.56;;;12.51;100.00
71638;BME280;59485;43.542;-5.676;2023-02-19T09:26:41;102987.47;;;12.55;100.00
71638;BME280;59485;43.542;-5.676;2023-02-19T09:29:06;102987.19;;;12.58;100.00
71638;BME280;59485;43.542;-5.676;2023-02-19T09:31:31;102987.03;;;12.60;100.00
71638;BME280;59485;43.542;-5.676;2023-02-19T09:33:59;102990.19;;;12.65;100.00
71638;BME280;59485;43.542;-5.676;2023-02-19T09:36:27;102983.53;;;12.67;100.00
71638;BME280;59485;43.542;-5.676;2023-02-19T09:38:52;102990.63;;;12.70;100.00
71638;BME280;59485;43.542;-5.676;2023-02-19T09:41:30;102986.00;;;12.70;100.00
71638;BME280;59485;43.542;-5.676;2023-02-19T09:43:57;102986.69;;;12.72;100.00
71638;BME280;59485;43.542;-5.676;2023-02-19T09:48:48;102983.38;;;12.78;100.00
71638;BME280;59485;43.542;-5.676;2023-02-19T09:51:13;102985.06;;;12.79;100.00
71638;BME280;59485;43.542;-5.676;2023-02-19T09:53:40;102980.44;;;12.80;100.00
71638;BME280;59485;43.542;-5.676;2023-02-19T09:56:08;102987.69;;;12.81;100.00
71638;BME280;59485;43.542;-5.676;2023-02-19T09:58:34;102980.16;;;12.83;100.00
71638;BME280;59485;43.542;-5.676;2023-02-19T10:01:01;102979.13;;;12.84;100.00
71638;BME280;59485;43.542;-5.676;2023-02-19T10:06:00;102984.88;;;12.91;100.00
71638;BME280;59485;43.542;-5.676;2023-02-19T10:08:25;102979.09;;;12.94;100.00
71638;BME280;59485;43.542;-5.676;2023-02-19T10:10:51;102979.66;;;12.97;100.00
71638;BME280;59485;43.542;-5.676;2023-02-19T10:13:22;102979.66;;;12.97;100.00
71638;BME280;59485;43.542;-5.676;2023-02-19T10:15:51;102972.56;;;12.95;100.00
71638;BME280;59485;43.542;-5.676;2023-02-19T10:18:19;102970.84;;;12.94;100.00
71638;BME280;59485;43.542;-5.676;2023-02-19T10:20:46;102973.09;;;12.98;100.00
71638;BME280;59485;43.542;-5.676;2023-02-19T10:23:12;102969.63;;;13.06;100.00
71638;BME280;59485;43.542;-5.676;2023-02-19T10:25:40;102970.88;;;13.11;100.00
71638;BME280;59485;43.542;-5.676;2023-02-19T10:28:08;102962.38;;;13.14;100.00
71638;BME280;59485;43.542;-5.676;2023-02-19T10:30:37;102964.78;;;13.18;100.00
71638;BME280;59485;43.542;-5.676;2023-02-19T10:33:09;102971.72;;;13.22;100.00
71638;BME280;59485;43.542;-5.676;2023-02-19T10:35:58;102968.66;;;13.25;100.00
71638;BME280;59485;43.542;-5.676;2023-02-19T10:38:32;102965.22;;;13.23;100.00
71638;BME280;59485;43.542;-5.676;2023-02-19T10:41:03;102975.03;;;13.25;100.00
71638;BME280;59485;43.542;-5.676;2023-02-19T10:43:30;102968.34;;;13.28;100.00
71638;BME280;59485;43.542;-5.676;2023-02-19T10:46:02;102964.00;;;13.25;100.00
71638;BME280;59485;43.542;-5.676;2023-02-19T10:48:33;102965.22;;;13.23;100.00
71638;BME280;59485;43.542;-5.676;2023-02-19T10:51:01;102964.34;;;13.22;100.00
71638;BME280;59485;43.542;-5.676;2023-02-19T10:53:40;102966.63;;;13.27;100.00
71638;BME280;59485;43.542;-5.676;2023-02-19T10:56:06;102965.22;;;13.23;100.00
71638;BME280;59485;43.542;-5.676;2023-02-19T10:58:32;102967.97;;;13.23;100.00
71638;BME280;59485;43.542;-5.676;2023-02-19T11:01:08;102977.16;;;13.13;100.00
71638;BME280;59485;43.542;-5.676;2023-02-19T11:03:34;102969.28;;;13.19;100.00
71638;BME280;59485;43.542;-5.676;2023-02-19T11:06:00;102969.28;;;13.19;100.00
71638;BME280;59485;43.542;-5.676;2023-02-19T11:08:26;102983.78;;;13.21;100.00
71638;BME280;59485;43.542;-5.676;2023-02-19T11:10:52;102976.38;;;13.21;100.00
71638;BME280;59485;43.542;-5.676;2023-02-19T11:13:24;102975.50;;;13.21;100.00
71638;BME280;59485;43.542;-5.676;2023-02-19T11:15:53;102971.88;;;13.20;100.00
71638;BME280;59485;43.542;-5.676;2023-02-19T11:18:21;102973.63;;;13.21;100.00
71638;BME280;59485;43.542;-5.676;2023-02-19T11:23:16;102976.22;;;13.23;100.00
71638;BME280;59485;43.542;-5.676;2023-02-19T11:25:46;102977.19;;;13.31;100.00
71638;BME280;59485;43.542;-5.676;2023-02-19T11:30:42;102970.41;;;13.43;100.00
71638;BME280;59485;43.542;-5.676;2023-02-19T11:33:18;102969.25;;;13.46;100.00
71638;BME280;59485;43.542;-5.676;2023-02-19T11:35:48;102974.13;;;13.52;100.00
71638;BME280;59485;43.542;-5.676;2023-02-19T11:38:14;102965.84;;;13.52;100.00
71638;BME280;59485;43.542;-5.676;2023-02-19T11:40:44;102955.56;;;13.54;100.00
71638;BME280;59485;43.542;-5.676;2023-02-19T11:50:55;102946.50;;;13.62;100.00
71638;BME280;59485;43.542;-5.676;2023-02-19T11:53:25;102941.25;;;13.68;100.00
71638;BME280;59485;43.542;-5.676;2023-02-19T11:56:01;102937.38;;;13.61;100.00
71638;BME280;59485;43.542;-5.676;2023-02-19T12:11:43;102918.00;;;13.53;100.00
71638;BME280;59485;43.542;-5.676;2023-02-19T12:32:46;102880.03;;;13.82;100.00
71638;BME280;59485;43.542;-5.676;2023-02-19T12:35:34;102888.28;;;13.82;100.00
71638;BME280;59485;43.542;-5.676;2023-02-19T12:40:42;102880.94;;;13.91;100.00
71638;BME280;59485;43.542;-5.676;2023-02-19T12:45:43;102867.28;;;14.07;100.00
71638;BME280;59485;43.542;-5.676;2023-02-19T12:51:00;102846.19;;;14.24;100.00
71638;BME280;59485;43.542;-5.676;2023-02-19T12:55:55;102828.28;;;14.28;100.00
71638;BME280;59485;43.542;-5.676;2023-02-19T12:58:31;102826.69;;;14.25;100.00
71638;BME280;59485;43.542;-5.676;2023-02-19T13:00:59;102825.19;;;14.31;100.00
71638;BME280;59485;43.542;-5.676;2023-02-19T13:03:33;102817.88;;;14.40;100.00
71638;BME280;59485;43.542;-5.676;2023-02-19T13:06:14;102812.53;;;14.46;100.00
71638;BME280;59485;43.542;-5.676;2023-02-19T13:11:23;102800.19;;;14.67;100.00
71638;BME280;59485;43.542;-5.676;2023-02-19T13:13:52;102791.78;;;14.76;100.00
71638;BME280;59485;43.542;-5.676;2023-02-19T13:16:20;102782.81;;;14.82;100.00
71638;BME280;59485;43.542;-5.676;2023-02-19T13:18:47;102784.88;;;14.88;100.00
71638;BME280;59485;43.542;-5.676;2023-02-19T13:21:14;102778.16;;;14.91;100.00
71638;BME280;59485;43.542;-5.676;2023-02-19T13:24:02;102776.09;;;14.93;100.00
71638;BME280;59485;43.542;-5.676;2023-02-19T13:26:44;102767.28;;;14.97;100.00
71638;BME280;59485;43.542;-5.676;2023-02-19T13:36:56;102744.69;;;15.10;100.00
71638;BME280;59485;43.542;-5.676;2023-02-19T13:39:23;102733.28;;;14.97;100.00
71638;BME280;59485;43.542;-5.676;2023-02-19T13:41:49;102739.66;;;14.81;100.00
71638;BME280;59485;43.542;-5.676;2023-02-19T13:44:18;102743.09;;;14.67;100.00
71638;BME280;59485;43.542;-5.676;2023-02-19T13:46:45;102749.44;;;14.59;100.00
71638;BME280;59485;43.542;-5.676;2023-02-19T13:51:52;102734.63;;;14.69;100.00
71638;BME280;59485;43.542;-5.676;2023-02-19T13:54:39;102731.19;;;14.75;100.00
71638;BME280;59485;43.542;-5.676;2023-02-19T13:59:50;102713.59;;;14.76;100.00
71638;BME280;59485;43.542;-5.676;2023-02-19T14:04:48;102712.38;;;14.78;100.00
71638;BME280;59485;43.542;-5.676;2023-02-19T14:14:45;102711.00;;;14.66;100.00
71638;BME280;59485;43.542;-5.676;2023-02-19T14:25:08;102692.88;;;14.80;100.00
71638;BME280;59485;43.542;-5.676;2023-02-19T14:27:42;102684.91;;;14.60;100.00
71638;BME280;59485;43.542;-5.676;2023-02-19T14:30:09;102690.09;;;14.47;100.00
71638;BME280;59485;43.542;-5.676;2023-02-19T14:32:37;102694.19;;;14.43;100.00
71638;BME280;59485;43.542;-5.676;2023-02-19T14:35:03;102690.06;;;14.39;100.00
71638;BME280;59485;43.542;-5.676;2023-02-19T14:37:28;102690.19;;;14.30;100.00
71638;BME280;59485;43.542;-5.676;2023-02-19T14:39:54;102685.16;;;14.33;100.00
71638;BME280;59485;43.542;-5.676;2023-02-19T14:42:22;102685.00;;;14.26;100.00
71638;BME280;59485;43.542;-5.676;2023-02-19T14:44:52;102675.69;;;14.27;100.00
71638;BME280;59485;43.542;-5.676;2023-02-19T14:47:20;102673.22;;;14.16;100.00
71638;BME280;59485;43.542;-5.676;2023-02-19T14:49:51;102675.47;;;14.13;100.00
71638;BME280;59485;43.542;-5.676;2023-02-19T14:52:21;102670.63;;;14.15;100.00
71638;BME280;59485;43.542;-5.676;2023-02-19T14:57:16;102674.41;;;14.14;100.00
71638;BME280;59485;43.542;-5.676;2023-02-19T14:59:50;102668.41;;;14.18;100.00
71638;BME280;59485;43.542;-5.676;2023-02-19T15:02:16;102663.06;;;14.17;100.00
71638;BME280;59485;43.542;-5.676;2023-02-19T15:04:42;102662.03;;;14.18;100.00
71638;BME280;59485;43.542;-5.676;2023-02-19T15:07:08;102675.28;;;14.14;100.00
71638;BME280;59485;43.542;-5.676;2023-02-19T15:09:36;102675.28;;;14.14;100.00
71638;BME280;59485;43.542;-5.676;2023-02-19T15:12:03;102669.41;;;14.09;100.00
71638;BME280;59485;43.542;-5.676;2023-02-19T15:14:29;102668.88;;;14.06;100.00
71638;BME280;59485;43.542;-5.676;2023-02-19T15:17:00;102663.72;;;14.03;100.00
71638;BME280;59485;43.542;-5.676;2023-02-19T15:19:26;102663.59;;;14.12;100.00